sensor_id;sensor_type;location;lat;lon;timestamp;pressure;altitude;pressure_sealevel;temperature;humidity
29879;BME280;16752;53.364;-1.488;2022-09-02T11:07:26;100358.66;;;30.84;31.23
29879;BME280;16752;53.364;-1.488;2022-09-02T11:16:31;100357.38;;;31.45;30.17
29879;BME280;16752;53.364;-1.488;2022-09-02T11:25:40;100346.88;;;31.49;29.81
29879;BME280;16752;53.364;-1.488;2022-09-02T11:28:21;100331.75;;;31.24;29.26
29879;BME280;16752;53.364;-1.488;2022-09-02T11:58:46;100273.66;;;31.84;29.09
29879;BME280;16752;53.364;-1.488;2022-09-02T12:01:21;100282.06;;;31.99;28.71
29879;BME280;16752;53.364;-1.488;2022-09-02T12:28:15;100247.94;;;32.65;27.09
29879;BME280;16752;53.364;-1.488;2022-09-02T12:31:36;100252.88;;;32.85;26.83
29879;BME280;16752;53.364;-1.488;2022-09-02T12:33:34;100241.81;;;32.36;26.03
29879;BME280;16752;53.364;-1.488;2022-09-02T12:36:00;100236.84;;;32.50;25.99
29879;BME280;16752;53.364;-1.488;2022-09-02T12:38:36;100239.31;;;32.51;25.84
29879;BME280;16752;53.364;-1.488;2022-09-02T12:43:33;100226.41;;;32.75;26.60
29879;BME280;16752;53.364;-1.488;2022-09-02T12:46:15;100228.47;;;32.18;26.02
29879;BME280;16752;53.364;-1.488;2022-09-02T12:52:10;100222.31;;;32.95;25.67
29879;BME280;16752;53.364;-1.488;2022-09-02T12:54:16;100221.88;;;32.64;26.48
29879;BME280;16752;53.364;-1.488;2022-09-02T12:56:49;100221.44;;;32.89;26.27
29879;BME280;16752;53.364;-1.488;2022-09-02T12:59:36;100219.44;;;33.01;25.99
29879;BME280;16752;53.364;-1.488;2022-09-02T13:02:08;100220.81;;;32.65;25.93
29879;BME280;16752;53.364;-1.488;2022-09-02T13:05:00;100220.50;;;32.62;25.44
29879;BME280;16752;53.364;-1.488;2022-09-02T13:07:40;100214.75;;;32.58;25.89
29879;BME280;16752;53.364;-1.488;2022-09-02T13:15:50;100207.31;;;32.70;25.89
29879;BME280;16752;53.364;-1.488;2022-09-02T13:27:32;100189.06;;;33.26;23.03
29879;BME280;16752;53.364;-1.488;2022-09-02T13:30:20;100188.38;;;33.36;23.58
29879;BME280;16752;53.364;-1.488;2022-09-02T13:33:20;100189.47;;;33.62;22.86
29879;BME280;16752;53.364;-1.488;2022-09-02T13:35:45;100181.84;;;33.59;22.92
29879;BME280;16752;53.364;-1.488;2022-09-02T13:38:21;100179.59;;;33.51;23.23
29879;BME280;16752;53.364;-1.488;2022-09-02T13:40:47;100174.97;;;33.51;24.21
29879;BME280;16752;53.364;-1.488;2022-09-02T13:43:16;100171.53;;;33.34;24.07
29879;BME280;16752;53.364;-1.488;2022-09-02T13:45:44;100172.84;;;33.31;23.37
29879;BME280;16752;53.364;-1.488;2022-09-02T13:48:14;100168.94;;;33.22;23.60
29879;BME280;16752;53.364;-1.488;2022-09-02T13:50:48;100171.66;;;33.22;24.55
29879;BME280;16752;53.364;-1.488;2022-09-02T13:53:48;100157.28;;;32.61;24.13
29879;BME280;16752;53.364;-1.488;2022-09-02T13:56:27;100155.91;;;32.25;24.62
29879;BME280;16752;53.364;-1.488;2022-09-02T13:59:06;100145.81;;;31.87;24.76
29879;BME280;16752;53.364;-1.488;2022-09-02T14:01:59;100149.38;;;32.04;25.01
29879;BME280;16752;53.364;-1.488;2022-09-02T14:04:30;100143.94;;;32.21;24.94
29879;BME280;16752;53.364;-1.488;2022-09-02T14:06:59;100147.66;;;31.98;24.92
29879;BME280;16752;53.364;-1.488;2022-09-02T14:09:39;100146.16;;;32.07;25.20
29879;BME280;16752;53.364;-1.488;2022-09-02T14:18:41;100136.56;;;32.33;25.62
29879;BME280;16752;53.364;-1.488;2022-09-02T14:21:49;100133.19;;;32.26;25.94
29879;BME280;16752;53.364;-1.488;2022-09-02T14:31:21;100122.94;;;32.11;25.46
29879;BME280;16752;53.364;-1.488;2022-09-02T14:37:48;100121.13;;;32.00;25.98
29879;BME280;16752;53.364;-1.488;2022-09-02T14:40:46;100111.84;;;31.96;26.27
29879;BME280;16752;53.364;-1.488;2022-09-02T14:44:17;100109.25;;;32.23;26.72
29879;BME280;16752;53.364;-1.488;2022-09-02T14:57:27;100097.00;;;32.54;23.90
29879;BME280;16752;53.364;-1.488;2022-09-02T15:00:14;100087.28;;;32.58;23.75
29879;BME280;16752;53.364;-1.488;2022-09-02T15:03:07;100092.44;;;33.30;23.49
29879;BME280;16752;53.364;-1.488;2022-09-02T15:06:18;100090.38;;;33.37;23.84
29879;BME280;16752;53.364;-1.488;2022-09-02T15:09:30;100083.75;;;33.55;24.26
29879;BME280;16752;53.364;-1.488;2022-09-02T15:21:53;100077.59;;;34.02;23.34
29879;BME280;16752;53.364;-1.488;2022-09-02T15:24:39;100073.44;;;33.89;23.32
29879;BME280;16752;53.364;-1.488;2022-09-02T15:37:55;100076.19;;;32.04;25.88
29879;BME280;16752;53.364;-1.488;2022-09-02T15:41:09;100070.19;;;32.02;25.98
29879;BME280;16752;53.364;-1.488;2022-09-02T15:43:34;100068.69;;;31.73;26.44
29879;BME280;16752;53.364;-1.488;2022-09-02T15:48:59;100061.69;;;31.77;26.60
29879;BME280;16752;53.364;-1.488;2022-09-02T15:51:33;100053.84;;;31.63;26.91
29879;BME280;16752;53.364;-1.488;2022-09-02T15:54:01;100052.63;;;31.38;26.68
29879;BME280;16752;53.364;-1.488;2022-09-02T15:56:28;100051.44;;;31.17;26.88
29879;BME280;16752;53.364;-1.488;2022-09-02T15:59:00;100048.75;;;31.17;26.59
29879;BME280;16752;53.364;-1.488;2022-09-02T16:01:27;100045.53;;;31.20;27.07
29879;BME280;16752;53.364;-1.488;2022-09-02T16:03:53;100044.59;;;31.26;26.78
29879;BME280;16752;53.364;-1.488;2022-09-02T16:06:19;100042.56;;;31.05;27.55
29879;BME280;16752;53.364;-1.488;2022-09-02T16:08:45;100048.38;;;31.25;27.10
29879;BME280;16752;53.364;-1.488;2022-09-02T16:11:19;100032.13;;;31.25;27.41
29879;BME280;16752;53.364;-1.488;2022-09-02T16:13:44;100034.97;;;31.18;27.65
29879;BME280;16752;53.364;-1.488;2022-09-02T16:16:11;100028.63;;;31.13;27.83
29879;BME280;16752;53.364;-1.488;2022-09-02T16:18:37;100029.72;;;31.00;28.32
29879;BME280;16752;53.364;-1.488;2022-09-02T16:21:04;100030.03;;;30.87;27.83
29879;BME280;16752;53.364;-1.488;2022-09-02T16:23:30;100024.56;;;30.70;27.92
29879;BME280;16752;53.364;-1.488;2022-09-02T16:26:08;100020.13;;;30.64;28.32
29879;BME280;16752;53.364;-1.488;2022-09-02T16:28:38;100016.03;;;30.61;28.65
29879;BME280;16752;53.364;-1.488;2022-09-02T16:31:06;100015.88;;;30.68;28.76
29879;BME280;16752;53.364;-1.488;2022-09-02T16:33:33;100008.84;;;30.67;28.68
29879;BME280;16752;53.364;-1.488;2022-09-02T16:35:59;100007.19;;;30.66;28.50
29879;BME280;16752;53.364;-1.488;2022-09-02T16:38:24;100001.69;;;30.61;29.14
29879;BME280;16752;53.364;-1.488;2022-09-02T16:40:50;100006.13;;;30.55;28.92
29879;BME280;16752;53.364;-1.488;2022-09-02T16:43:17;100004.81;;;30.58;28.74
29879;BME280;16752;53.364;-1.488;2022-09-02T16:45:47;99996.38;;;30.66;29.25
29879;BME280;16752;53.364;-1.488;2022-09-02T16:48:14;99993.09;;;30.64;28.37
29879;BME280;16752;53.364;-1.488;2022-09-02T16:50:45;100002.72;;;30.60;28.72
29879;BME280;16752;53.364;-1.488;2022-09-02T16:53:12;99991.91;;;30.60;28.71
29879;BME280;16752;53.364;-1.488;2022-09-02T16:55:42;99996.88;;;30.63;28.17
29879;BME280;16752;53.364;-1.488;2022-09-02T16:58:08;99988.75;;;30.51;27.68
29879;BME280;16752;53.364;-1.488;2022-09-02T17:00:35;99989.47;;;30.47;28.07
29879;BME280;16752;53.364;-1.488;2022-09-02T17:03:04;99981.78;;;30.55;27.82
29879;BME280;16752;53.364;-1.488;2022-09-02T17:05:30;99977.38;;;30.61;27.77
29879;BME280;16752;53.364;-1.488;2022-09-02T17:08:05;99972.81;;;30.38;27.42
29879;BME280;16752;53.364;-1.488;2022-09-02T17:10:31;99980.72;;;30.56;27.12
29879;BME280;16752;53.364;-1.488;2022-09-02T17:12:57;99976.88;;;30.64;26.95
29879;BME280;16752;53.364;-1.488;2022-09-02T17:15:26;99980.63;;;30.63;27.06
29879;BME280;16752;53.364;-1.488;2022-09-02T17:17:52;99977.94;;;30.63;26.38
29879;BME280;16752;53.364;-1.488;2022-09-02T17:20:18;99979.00;;;30.62;26.65
29879;BME280;16752;53.364;-1.488;2022-09-02T17:22:43;99976.38;;;30.67;27.18
29879;BME280;16752;53.364;-1.488;2022-09-02T17:25:09;99973.69;;;30.67;27.15
29879;BME280;16752;53.364;-1.488;2022-09-02T17:27:36;99971.81;;;30.56;27.20
29879;BME280;16752;53.364;-1.488;2022-09-02T17:30:03;99964.19;;;30.53;27.31
29879;BME280;16752;53.364;-1.488;2022-09-02T17:32:45;99959.53;;;30.36;26.83
29879;BME280;16752;53.364;-1.488;2022-09-02T17:35:16;99955.81;;;30.54;26.50
29879;BME280;16752;53.364;-1.488;2022-09-02T17:37:41;99951.16;;;30.50;27.32
29879;BME280;16752;53.364;-1.488;2022-09-02T17:40:08;99951.66;;;30.35;27.36
29879;BME280;16752;53.364;-1.488;2022-09-02T17:42:56;99955.97;;;30.19;28.32
29879;BME280;16752;53.364;-1.488;2022-09-02T17:45:22;99953.59;;;30.11;28.18
29879;BME280;16752;53.364;-1.488;2022-09-02T17:47:47;99951.03;;;29.93;28.19
29879;BME280;16752;53.364;-1.488;2022-09-02T17:50:13;99950.25;;;29.80;28.46
29879;BME280;16752;53.364;-1.488;2022-09-02T17:52:39;99958.53;;;29.44;28.67
29879;BME280;16752;53.364;-1.488;2022-09-02T17:55:15;99951.06;;;29.58;28.76
29879;BME280;16752;53.364;-1.488;2022-09-02T17:58:01;99956.44;;;29.46;29.81
29879;BME280;16752;53.364;-1.488;2022-09-02T18:00:30;99954.19;;;29.43;29.68
29879;BME280;16752;53.364;-1.488;2022-09-02T18:03:22;99945.53;;;29.29;30.03
29879;BME280;16752;53.364;-1.488;2022-09-02T18:06:08;99944.69;;;29.17;29.90
29879;BME280;16752;53.364;-1.488;2022-09-02T18:08:56;99939.41;;;29.10;30.53
29879;BME280;16752;53.364;-1.488;2022-09-02T18:11:25;99927.28;;;29.01;30.64
29879;BME280;16752;53.364;-1.488;2022-09-02T18:21:06;99934.34;;;28.72;31.02
29879;BME280;16752;53.364;-1.488;2022-09-02T18:33:50;99938.63;;;28.61;32.41
29879;BME280;16752;53.364;-1.488;2022-09-02T18:47:01;99937.09;;;28.54;33.38
29879;BME280;16752;53.364;-1.488;2022-09-02T19:07:39;99918.84;;;28.38;33.14
29879;BME280;16752;53.364;-1.488;2022-09-02T20:08:35;99911.09;;;27.93;33.37
29879;BME280;16752;53.364;-1.488;2022-09-02T20:11:22;99912.38;;;27.90;33.22
29879;BME280;16752;53.364;-1.488;2022-09-02T20:14:00;99911.78;;;27.88;33.68
29879;BME280;16752;53.364;-1.488;2022-09-02T20:16:56;99919.25;;;27.86;33.50
29879;BME280;16752;53.364;-1.488;2022-09-02T20:19:47;99919.09;;;27.81;33.68
29879;BME280;16752;53.364;-1.488;2022-09-02T20:32:45;99910.94;;;27.69;34.16
29879;BME280;16752;53.364;-1.488;2022-09-02T20:35:44;99904.72;;;27.69;34.39
29879;BME280;16752;53.364;-1.488;2022-09-02T20:39:13;99902.31;;;27.61;34.65
29879;BME280;16752;53.364;-1.488;2022-09-02T21:49:37;99877.06;;;27.19;38.23
29879;BME280;16752;53.364;-1.488;2022-09-02T22:08:33;99850.06;;;27.07;38.91
29879;BME280;16752;53.364;-1.488;2022-09-02T22:20:03;99850.38;;;26.92;39.58
29879;BME280;16752;53.364;-1.488;2022-09-02T22:25:41;99846.69;;;26.87;39.69
